sensor_id;sensor_type;location;lat;lon;timestamp;temperature;humidity
1534;DHT22;760;48.822;9.304;2024-01-06T05:06:09;6.00;99.90
1534;DHT22;760;48.822;9.304;2024-01-06T05:08:35;6.00;99.90
1534;DHT22;760;48.822;9.304;2024-01-06T05:11:04;5.90;99.90
1534;DHT22;760;48.822;9.304;2024-01-06T05:13:30;5.90;99.90
1534;DHT22;760;48.822;9.304;2024-01-06T05:15:56;5.90;99.90
1534;DHT22;760;48.822;9.304;2024-01-06T05:18:21;5.90;99.90
1534;DHT22;760;48.822;9.304;2024-01-06T05:20:47;5.90;99.90
1534;DHT22;760;48.822;9.304;2024-01-06T05:23:13;5.90;99.90
1534;DHT22;760;48.822;9.304;2024-01-06T05:25:38;5.90;99.90
1534;DHT22;760;48.822;9.304;2024-01-06T05:28:04;5.90;99.90
1534;DHT22;760;48.822;9.304;2024-01-06T05:30:30;5.90;99.90
1534;DHT22;760;48.822;9.304;2024-01-06T05:32:55;5.90;99.90
1534;DHT22;760;48.822;9.304;2024-01-06T05:35:21;5.90;99.90
1534;DHT22;760;48.822;9.304;2024-01-06T05:37:47;5.90;99.90
1534;DHT22;760;48.822;9.304;2024-01-06T05:40:13;5.90;99.90
1534;DHT22;760;48.822;9.304;2024-01-06T05:42:40;5.90;99.90
1534;DHT22;760;48.822;9.304;2024-01-06T05:45:06;5.90;99.90
1534;DHT22;760;48.822;9.304;2024-01-06T05:47:31;6.00;99.90
1534;DHT22;760;48.822;9.304;2024-01-06T05:49:57;6.00;99.90
1534;DHT22;760;48.822;9.304;2024-01-06T05:52:23;6.00;99.90
1534;DHT22;760;48.822;9.304;2024-01-06T05:54:49;6.00;99.90
1534;DHT22;760;48.822;9.304;2024-01-06T05:57:14;6.00;99.90
1534;DHT22;760;48.822;9.304;2024-01-06T05:59:40;6.00;99.90
1534;DHT22;760;48.822;9.304;2024-01-06T06:02:06;6.00;99.90
1534;DHT22;760;48.822;9.304;2024-01-06T06:04:32;6.00;99.90
1534;DHT22;760;48.822;9.304;2024-01-06T06:06:57;6.10;99.90
1534;DHT22;760;48.822;9.304;2024-01-06T06:09:23;6.10;99.90
1534;DHT22;760;48.822;9.304;2024-01-06T06:11:48;6.10;99.90
1534;DHT22;760;48.822;9.304;2024-01-06T06:14:14;6.10;99.90
1534;DHT22;760;48.822;9.304;2024-01-06T06:16:40;6.10;99.90
1534;DHT22;760;48.822;9.304;2024-01-06T06:19:05;6.10;99.90
1534;DHT22;760;48.822;9.304;2024-01-06T06:21:31;6.00;99.90
1534;DHT22;760;48.822;9.304;2024-01-06T06:23:57;6.00;99.90
1534;DHT22;760;48.822;9.304;2024-01-06T06:26:23;6.00;99.90
1534;DHT22;760;48.822;9.304;2024-01-06T06:28:48;6.00;99.90
1534;DHT22;760;48.822;9.304;2024-01-06T06:31:14;6.00;99.90
1534;DHT22;760;48.822;9.304;2024-01-06T06:33:39;6.00;99.90
1534;DHT22;760;48.822;9.304;2024-01-06T06:36:05;6.00;99.90
1534;DHT22;760;48.822;9.304;2024-01-06T06:38:32;6.00;99.90
1534;DHT22;760;48.822;9.304;2024-01-06T06:40:57;6.10;99.90
1534;DHT22;760;48.822;9.304;2024-01-06T06:43:23;6.00;99.90
1534;DHT22;760;48.822;9.304;2024-01-06T06:45:49;6.10;99.90
1534;DHT22;760;48.822;9.304;2024-01-06T06:48:14;6.10;99.90
1534;DHT22;760;48.822;9.304;2024-01-06T06:50:40;6.10;99.90
1534;DHT22;760;48.822;9.304;2024-01-06T06:53:07;6.10;99.90
1534;DHT22;760;48.822;9.304;2024-01-06T06:55:32;6.10;99.90
1534;DHT22;760;48.822;9.304;2024-01-06T06:57:58;6.20;99.90
1534;DHT22;760;48.822;9.304;2024-01-06T07:00:24;6.20;99.90
1534;DHT22;760;48.822;9.304;2024-01-06T07:02:49;6.20;99.90
1534;DHT22;760;48.822;9.304;2024-01-06T07:05:15;6.20;99.90
1534;DHT22;760;48.822;9.304;2024-01-06T07:07:41;6.20;99.90
1534;DHT22;760;48.822;9.304;2024-01-06T07:10:08;6.20;99.90
1534;DHT22;760;48.822;9.304;2024-01-06T07:12:34;6.20;99.90
1534;DHT22;760;48.822;9.304;2024-01-06T07:15:00;6.30;99.90
1534;DHT22;760;48.822;9.304;2024-01-06T07:17:25;6.20;99.90
1534;DHT22;760;48.822;9.304;2024-01-06T07:19:51;6.20;99.90
1534;DHT22;760;48.822;9.304;2024-01-06T07:22:16;6.30;99.90
1534;DHT22;760;48.822;9.304;2024-01-06T07:24:43;6.30;99.90
1534;DHT22;760;48.822;9.304;2024-01-06T07:27:09;6.30;99.90
1534;DHT22;760;48.822;9.304;2024-01-06T07:29:35;6.30;99.90
1534;DHT22;760;48.822;9.304;2024-01-06T07:32:00;6.30;99.90
1534;DHT22;760;48.822;9.304;2024-01-06T07:34:26;6.30;99.90
1534;DHT22;760;48.822;9.304;2024-01-06T07:36:51;6.30;99.90
1534;DHT22;760;48.822;9.304;2024-01-06T07:39:17;6.30;99.90
1534;DHT22;760;48.822;9.304;2024-01-06T07:41:42;6.30;99.90
1534;DHT22;760;48.822;9.304;2024-01-06T07:44:08;6.30;99.90
1534;DHT22;760;48.822;9.304;2024-01-06T07:46:34;6.30;99.90
1534;DHT22;760;48.822;9.304;2024-01-06T07:49:02;6.30;99.90
1534;DHT22;760;48.822;9.304;2024-01-06T07:51:28;6.30;99.90
1534;DHT22;760;48.822;9.304;2024-01-06T07:53:53;6.40;99.90
1534;DHT22;760;48.822;9.304;2024-01-06T07:56:19;6.40;99.90
1534;DHT22;760;48.822;9.304;2024-01-06T07:58:45;6.40;99.90
1534;DHT22;760;48.822;9.304;2024-01-06T08:01:10;6.40;99.90
1534;DHT22;760;48.822;9.304;2024-01-06T08:03:36;6.50;99.90
1534;DHT22;760;48.822;9.304;2024-01-06T08:06:02;6.50;99.90
1534;DHT22;760;48.822;9.304;2024-01-06T08:08:28;6.50;99.90
1534;DHT22;760;48.822;9.304;2024-01-06T08:10:53;6.50;99.90
1534;DHT22;760;48.822;9.304;2024-01-06T08:13:19;6.50;99.90
1534;DHT22;760;48.822;9.304;2024-01-06T08:15:45;6.60;99.90
1534;DHT22;760;48.822;9.304;2024-01-06T08:18:10;6.60;99.90
1534;DHT22;760;48.822;9.304;2024-01-06T08:20:36;6.60;99.90
1534;DHT22;760;48.822;9.304;2024-01-06T08:23:01;6.60;99.90
1534;DHT22;760;48.822;9.304;2024-01-06T08:25:27;6.60;99.90
1534;DHT22;760;48.822;9.304;2024-01-06T08:27:53;6.70;99.90
1534;DHT22;760;48.822;9.304;2024-01-06T08:30:19;6.80;99.90
1534;DHT22;760;48.822;9.304;2024-01-06T08:32:44;6.80;99.90
1534;DHT22;760;48.822;9.304;2024-01-06T08:35:10;6.90;99.90
1534;DHT22;760;48.822;9.304;2024-01-06T08:37:35;6.90;99.90
1534;DHT22;760;48.822;9.304;2024-01-06T08:40:01;6.90;99.90
1534;DHT22;760;48.822;9.304;2024-01-06T08:42:28;6.90;99.90
1534;DHT22;760;48.822;9.304;2024-01-06T08:44:54;7.00;99.90
1534;DHT22;760;48.822;9.304;2024-01-06T08:47:19;7.00;99.90
1534;DHT22;760;48.822;9.304;2024-01-06T08:49:45;7.00;99.90
1534;DHT22;760;48.822;9.304;2024-01-06T08:52:10;7.10;99.90
1534;DHT22;760;48.822;9.304;2024-01-06T08:54:36;7.10;99.90
1534;DHT22;760;48.822;9.304;2024-01-06T08:57:02;7.10;99.90
1534;DHT22;760;48.822;9.304;2024-01-06T08:59:27;7.10;99.90
1534;DHT22;760;48.822;9.304;2024-01-06T09:01:53;7.20;99.90
1534;DHT22;760;48.822;9.304;2024-01-06T09:04:18;7.20;99.90
1534;DHT22;760;48.822;9.304;2024-01-06T09:06:44;7.20;99.90
1534;DHT22;760;48.822;9.304;2024-01-06T09:09:13;7.20;99.90
1534;DHT22;760;48.822;9.304;2024-01-06T09:11:39;7.30;99.90
1534;DHT22;760;48.822;9.304;2024-01-06T09:14:04;7.30;99.90
1534;DHT22;760;48.822;9.304;2024-01-06T09:16:30;7.30;99.90
1534;DHT22;760;48.822;9.304;2024-01-06T09:18:55;7.30;99.90
1534;DHT22;760;48.822;9.304;2024-01-06T09:21:21;7.30;99.90
1534;DHT22;760;48.822;9.304;2024-01-06T09:23:47;7.30;99.90
1534;DHT22;760;48.822;9.304;2024-01-06T09:26:12;7.30;99.90
1534;DHT22;760;48.822;9.304;2024-01-06T09:28:38;7.30;99.90
1534;DHT22;760;48.822;9.304;2024-01-06T09:31:04;7.30;99.90
1534;DHT22;760;48.822;9.304;2024-01-06T09:33:30;7.30;99.90
1534;DHT22;760;48.822;9.304;2024-01-06T09:35:57;7.30;99.90
1534;DHT22;760;48.822;9.304;2024-01-06T09:38:23;7.30;99.90
1534;DHT22;760;48.822;9.304;2024-01-06T09:40:49;7.30;99.90
1534;DHT22;760;48.822;9.304;2024-01-06T09:43:14;7.40;99.90
1534;DHT22;760;48.822;9.304;2024-01-06T09:45:40;7.40;99.90
1534;DHT22;760;48.822;9.304;2024-01-06T09:48:12;7.50;99.90
1534;DHT22;760;48.822;9.304;2024-01-06T09:50:42;7.60;99.90
1534;DHT22;760;48.822;9.304;2024-01-06T09:53:11;7.80;99.90
1534;DHT22;760;48.822;9.304;2024-01-06T09:55:37;7.90;99.90
1534;DHT22;760;48.822;9.304;2024-01-06T09:58:04;7.90;99.90
1534;DHT22;760;48.822;9.304;2024-01-06T10:00:31;8.00;99.90
1534;DHT22;760;48.822;9.304;2024-01-06T10:02:57;8.10;99.90
1534;DHT22;760;48.822;9.304;2024-01-06T10:05:23;8.30;99.90
1534;DHT22;760;48.822;9.304;2024-01-06T10:07:49;8.40;99.90
1534;DHT22;760;48.822;9.304;2024-01-06T10:10:15;8.50;99.90
1534;DHT22;760;48.822;9.304;2024-01-06T10:12:41;8.60;99.90
1534;DHT22;760;48.822;9.304;2024-01-06T10:15:11;8.60;99.90
1534;DHT22;760;48.822;9.304;2024-01-06T10:17:40;8.60;99.90
1534;DHT22;760;48.822;9.304;2024-01-06T10:20:12;8.50;99.90
1534;DHT22;760;48.822;9.304;2024-01-06T10:22:41;8.50;99.90
1534;DHT22;760;48.822;9.304;2024-01-06T10:25:09;8.50;99.90
1534;DHT22;760;48.822;9.304;2024-01-06T10:27:35;8.30;99.90
1534;DHT22;760;48.822;9.304;2024-01-06T10:30:01;8.30;99.90
1534;DHT22;760;48.822;9.304;2024-01-06T10:32:30;8.20;99.90
1534;DHT22;760;48.822;9.304;2024-01-06T10:34:55;8.20;99.90
1534;DHT22;760;48.822;9.304;2024-01-06T10:37:21;8.20;99.90
1534;DHT22;760;48.822;9.304;2024-01-06T10:39:47;8.10;99.90
1534;DHT22;760;48.822;9.304;2024-01-06T10:42:13;8.10;99.90
1534;DHT22;760;48.822;9.304;2024-01-06T10:44:40;8.00;99.90
1534;DHT22;760;48.822;9.304;2024-01-06T10:47:07;8.00;99.90
1534;DHT22;760;48.822;9.304;2024-01-06T10:49:35;7.90;99.90
1534;DHT22;760;48.822;9.304;2024-01-06T10:52:01;7.80;99.90
1534;DHT22;760;48.822;9.304;2024-01-06T10:54:27;7.70;99.90
1534;DHT22;760;48.822;9.304;2024-01-06T10:56:53;7.60;99.90
1534;DHT22;760;48.822;9.304;2024-01-06T10:59:21;7.60;99.90
1534;DHT22;760;48.822;9.304;2024-01-06T11:01:50;7.50;99.90
1534;DHT22;760;48.822;9.304;2024-01-06T11:04:18;7.50;99.90
1534;DHT22;760;48.822;9.304;2024-01-06T11:06:45;7.40;99.90
1534;DHT22;760;48.822;9.304;2024-01-06T11:11:44;7.30;99.90
1534;DHT22;760;48.822;9.304;2024-01-06T11:14:21;7.30;99.90
1534;DHT22;760;48.822;9.304;2024-01-06T11:16:46;7.30;99.90
1534;DHT22;760;48.822;9.304;2024-01-06T11:19:41;7.30;99.90
1534;DHT22;760;48.822;9.304;2024-01-06T11:24:49;7.10;99.90
1534;DHT22;760;48.822;9.304;2024-01-06T11:27:19;7.10;99.90
1534;DHT22;760;48.822;9.304;2024-01-06T11:29:46;7.10;99.90
1534;DHT22;760;48.822;9.304;2024-01-06T11:32:37;7.10;99.90
1534;DHT22;760;48.822;9.304;2024-01-06T11:35:10;7.20;99.90
1534;DHT22;760;48.822;9.304;2024-01-06T11:43:02;7.10;99.90
1534;DHT22;760;48.822;9.304;2024-01-06T11:45:29;7.10;99.90
1534;DHT22;760;48.822;9.304;2024-01-06T11:47:57;7.20;99.90
1534;DHT22;760;48.822;9.304;2024-01-06T11:50:27;7.20;99.90
1534;DHT22;760;48.822;9.304;2024-01-06T11:52:53;7.30;99.90
1534;DHT22;760;48.822;9.304;2024-01-06T11:55:20;7.30;99.90
1534;DHT22;760;48.822;9.304;2024-01-06T11:57:46;7.30;99.90
1534;DHT22;760;48.822;9.304;2024-01-06T12:00:13;7.30;99.90
1534;DHT22;760;48.822;9.304;2024-01-06T12:02:41;7.40;99.90
1534;DHT22;760;48.822;9.304;2024-01-06T12:05:13;7.40;99.90
1534;DHT22;760;48.822;9.304;2024-01-06T12:07:41;7.40;99.90
1534;DHT22;760;48.822;9.304;2024-01-06T12:10:08;7.30;99.90
1534;DHT22;760;48.822;9.304;2024-01-06T12:12:33;7.30;99.90
1534;DHT22;760;48.822;9.304;2024-01-06T12:14:59;7.30;99.90
1534;DHT22;760;48.822;9.304;2024-01-06T12:17:29;7.40;99.90
1534;DHT22;760;48.822;9.304;2024-01-06T12:19:55;7.40;99.90
1534;DHT22;760;48.822;9.304;2024-01-06T12:22:21;7.40;99.90
1534;DHT22;760;48.822;9.304;2024-01-06T12:24:49;7.40;99.90
1534;DHT22;760;48.822;9.304;2024-01-06T12:27:17;7.40;99.90
1534;DHT22;760;48.822;9.304;2024-01-06T12:29:43;7.40;99.90
1534;DHT22;760;48.822;9.304;2024-01-06T12:32:10;7.40;99.90
1534;DHT22;760;48.822;9.304;2024-01-06T12:34:36;7.40;99.90
1534;DHT22;760;48.822;9.304;2024-01-06T12:37:02;7.30;99.90
1534;DHT22;760;48.822;9.304;2024-01-06T12:39:30;7.30;99.90
1534;DHT22;760;48.822;9.304;2024-01-06T12:41:56;7.30;99.90
1534;DHT22;760;48.822;9.304;2024-01-06T12:44:22;7.30;99.90
1534;DHT22;760;48.822;9.304;2024-01-06T12:46:49;7.30;99.90
1534;DHT22;760;48.822;9.304;2024-01-06T12:49:14;7.30;99.90
1534;DHT22;760;48.822;9.304;2024-01-06T12:51:40;7.20;99.90
1534;DHT22;760;48.822;9.304;2024-01-06T12:54:06;7.30;99.90
1534;DHT22;760;48.822;9.304;2024-01-06T12:56:31;7.30;99.90
1534;DHT22;760;48.822;9.304;2024-01-06T12:58:57;7.20;99.90
1534;DHT22;760;48.822;9.304;2024-01-06T13:01:22;7.20;99.90
1534;DHT22;760;48.822;9.304;2024-01-06T13:03:48;7.20;99.90
1534;DHT22;760;48.822;9.304;2024-01-06T13:06:14;7.20;99.90
1534;DHT22;760;48.822;9.304;2024-01-06T13:08:41;7.20;99.90
1534;DHT22;760;48.822;9.304;2024-01-06T13:11:07;7.20;99.90
1534;DHT22;760;48.822;9.304;2024-01-06T13:13:33;7.20;99.90
1534;DHT22;760;48.822;9.304;2024-01-06T13:16:00;7.20;99.90
1534;DHT22;760;48.822;9.304;2024-01-06T13:18:27;7.20;99.90
1534;DHT22;760;48.822;9.304;2024-01-06T13:20:53;7.20;99.90
1534;DHT22;760;48.822;9.304;2024-01-06T13:23:19;7.20;99.90
1534;DHT22;760;48.822;9.304;2024-01-06T13:25:45;7.20;99.90
1534;DHT22;760;48.822;9.304;2024-01-06T13:28:11;7.10;99.90
1534;DHT22;760;48.822;9.304;2024-01-06T13:30:37;7.10;99.90
1534;DHT22;760;48.822;9.304;2024-01-06T13:33:05;7.00;99.90
1534;DHT22;760;48.822;9.304;2024-01-06T13:35:30;7.00;99.90
1534;DHT22;760;48.822;9.304;2024-01-06T13:37:56;7.00;99.90
1534;DHT22;760;48.822;9.304;2024-01-06T13:40:22;7.00;99.90
1534;DHT22;760;48.822;9.304;2024-01-06T13:42:49;7.00;99.90
1534;DHT22;760;48.822;9.304;2024-01-06T13:45:16;7.10;99.90
1534;DHT22;760;48.822;9.304;2024-01-06T13:47:42;7.00;99.90
1534;DHT22;760;48.822;9.304;2024-01-06T13:50:13;7.10;99.90
1534;DHT22;760;48.822;9.304;2024-01-06T13:52:39;7.00;99.90
1534;DHT22;760;48.822;9.304;2024-01-06T13:55:05;7.00;99.90
1534;DHT22;760;48.822;9.304;2024-01-06T13:57:32;6.90;99.90
1534;DHT22;760;48.822;9.304;2024-01-06T13:59:57;6.90;99.90
1534;DHT22;760;48.822;9.304;2024-01-06T14:02:23;7.00;99.90
1534;DHT22;760;48.822;9.304;2024-01-06T14:04:51;6.90;99.90
1534;DHT22;760;48.822;9.304;2024-01-06T14:07:16;6.90;99.90
1534;DHT22;760;48.822;9.304;2024-01-06T14:09:46;6.90;99.90
1534;DHT22;760;48.822;9.304;2024-01-06T14:12:12;6.90;99.90
1534;DHT22;760;48.822;9.304;2024-01-06T14:14:39;6.90;99.90
1534;DHT22;760;48.822;9.304;2024-01-06T14:17:05;6.90;99.90
1534;DHT22;760;48.822;9.304;2024-01-06T14:19:30;6.90;99.90
1534;DHT22;760;48.822;9.304;2024-01-06T14:21:56;6.80;99.90
1534;DHT22;760;48.822;9.304;2024-01-06T14:24:21;6.90;99.90
1534;DHT22;760;48.822;9.304;2024-01-06T14:26:50;6.80;99.90
1534;DHT22;760;48.822;9.304;2024-01-06T14:29:17;6.80;99.90
1534;DHT22;760;48.822;9.304;2024-01-06T14:31:43;6.80;99.90
1534;DHT22;760;48.822;9.304;2024-01-06T14:34:09;6.80;99.90
1534;DHT22;760;48.822;9.304;2024-01-06T14:36:34;6.80;99.90
1534;DHT22;760;48.822;9.304;2024-01-06T14:39:00;6.80;99.90
1534;DHT22;760;48.822;9.304;2024-01-06T14:41:26;6.80;99.90
1534;DHT22;760;48.822;9.304;2024-01-06T14:43:52;6.80;99.90
1534;DHT22;760;48.822;9.304;2024-01-06T14:46:17;6.70;99.90
1534;DHT22;760;48.822;9.304;2024-01-06T14:48:44;6.70;99.90
1534;DHT22;760;48.822;9.304;2024-01-06T14:51:10;6.70;99.90
1534;DHT22;760;48.822;9.304;2024-01-06T14:53:35;6.70;99.90
1534;DHT22;760;48.822;9.304;2024-01-06T14:56:01;6.70;99.90
1534;DHT22;760;48.822;9.304;2024-01-06T14:58:29;6.60;99.90
1534;DHT22;760;48.822;9.304;2024-01-06T15:00:54;6.70;99.90
1534;DHT22;760;48.822;9.304;2024-01-06T15:03:20;6.60;99.90
1534;DHT22;760;48.822;9.304;2024-01-06T15:05:46;6.60;99.90
1534;DHT22;760;48.822;9.304;2024-01-06T15:08:11;6.60;99.90
1534;DHT22;760;48.822;9.304;2024-01-06T15:10:37;6.60;99.90
1534;DHT22;760;48.822;9.304;2024-01-06T15:13:03;6.60;99.90
1534;DHT22;760;48.822;9.304;2024-01-06T15:15:29;6.60;99.90
1534;DHT22;760;48.822;9.304;2024-01-06T15:17:55;6.60;99.90
1534;DHT22;760;48.822;9.304;2024-01-06T15:20:20;6.60;99.90
1534;DHT22;760;48.822;9.304;2024-01-06T15:22:48;6.60;99.90
1534;DHT22;760;48.822;9.304;2024-01-06T15:25:14;6.60;99.90
1534;DHT22;760;48.822;9.304;2024-01-06T15:27:39;6.60;99.90
1534;DHT22;760;48.822;9.304;2024-01-06T15:30:06;6.60;99.90
1534;DHT22;760;48.822;9.304;2024-01-06T15:32:35;6.60;99.90
1534;DHT22;760;48.822;9.304;2024-01-06T15:35:02;6.60;99.90
1534;DHT22;760;48.822;9.304;2024-01-06T15:37:28;6.60;99.90
1534;DHT22;760;48.822;9.304;2024-01-06T15:39:54;6.60;99.90
1534;DHT22;760;48.822;9.304;2024-01-06T15:42:19;6.60;99.90
1534;DHT22;760;48.822;9.304;2024-01-06T15:44:45;6.50;99.90
1534;DHT22;760;48.822;9.304;2024-01-06T15:47:11;6.50;99.90
1534;DHT22;760;48.822;9.304;2024-01-06T15:49:36;6.50;99.90
1534;DHT22;760;48.822;9.304;2024-01-06T15:52:02;6.50;99.90
1534;DHT22;760;48.822;9.304;2024-01-06T15:54:28;6.50;99.90
1534;DHT22;760;48.822;9.304;2024-01-06T15:56:55;6.40;99.90
1534;DHT22;760;48.822;9.304;2024-01-06T15:59:20;6.40;99.90
1534;DHT22;760;48.822;9.304;2024-01-06T16:01:46;6.40;99.90
1534;DHT22;760;48.822;9.304;2024-01-06T16:04:11;6.40;99.90
1534;DHT22;760;48.822;9.304;2024-01-06T16:06:37;6.40;99.90
1534;DHT22;760;48.822;9.304;2024-01-06T16:09:03;6.40;99.90
1534;DHT22;760;48.822;9.304;2024-01-06T16:11:31;6.40;99.90
1534;DHT22;760;48.822;9.304;2024-01-06T16:13:57;6.40;99.90
1534;DHT22;760;48.822;9.304;2024-01-06T16:16:22;6.40;99.90
1534;DHT22;760;48.822;9.304;2024-01-06T16:18:48;6.40;99.90
1534;DHT22;760;48.822;9.304;2024-01-06T16:21:24;6.40;99.90
1534;DHT22;760;48.822;9.304;2024-01-06T16:23:50;6.40;99.90
1534;DHT22;760;48.822;9.304;2024-01-06T16:26:16;6.40;99.90
1534;DHT22;760;48.822;9.304;2024-01-06T16:28:42;6.40;99.90
1534;DHT22;760;48.822;9.304;2024-01-06T16:31:08;6.40;99.90
1534;DHT22;760;48.822;9.304;2024-01-06T16:33:36;6.40;99.90
1534;DHT22;760;48.822;9.304;2024-01-06T16:36:02;6.40;99.90
1534;DHT22;760;48.822;9.304;2024-01-06T16:38:29;6.40;99.90
1534;DHT22;760;48.822;9.304;2024-01-06T16:41:00;6.40;99.90
1534;DHT22;760;48.822;9.304;2024-01-06T16:43:25;6.40;99.90
1534;DHT22;760;48.822;9.304;2024-01-06T16:45:51;6.40;99.90
1534;DHT22;760;48.822;9.304;2024-01-06T16:48:16;6.40;99.90
1534;DHT22;760;48.822;9.304;2024-01-06T16:50:42;6.40;99.90
1534;DHT22;760;48.822;9.304;2024-01-06T16:53:08;6.40;99.90
1534;DHT22;760;48.822;9.304;2024-01-06T16:55:33;6.40;99.90
1534;DHT22;760;48.822;9.304;2024-01-06T16:57:59;6.40;99.90
1534;DHT22;760;48.822;9.304;2024-01-06T17:00:26;6.40;99.90
1534;DHT22;760;48.822;9.304;2024-01-06T17:02:54;6.40;99.90
1534;DHT22;760;48.822;9.304;2024-01-06T17:05:20;6.40;99.90
1534;DHT22;760;48.822;9.304;2024-01-06T17:07:45;6.40;99.90
1534;DHT22;760;48.822;9.304;2024-01-06T17:10:13;6.40;99.90
1534;DHT22;760;48.822;9.304;2024-01-06T17:12:38;6.40;99.90
1534;DHT22;760;48.822;9.304;2024-01-06T17:15:05;6.40;99.90
1534;DHT22;760;48.822;9.304;2024-01-06T17:17:31;6.40;99.90
1534;DHT22;760;48.822;9.304;2024-01-06T17:19:56;6.40;99.90
1534;DHT22;760;48.822;9.304;2024-01-06T17:22:22;6.30;99.90
1534;DHT22;760;48.822;9.304;2024-01-06T17:24:47;6.40;99.90
1534;DHT22;760;48.822;9.304;2024-01-06T17:27:13;6.30;99.90
1534;DHT22;760;48.822;9.304;2024-01-06T17:29:39;6.30;99.90
1534;DHT22;760;48.822;9.304;2024-01-06T17:32:05;6.30;99.90
1534;DHT22;760;48.822;9.304;2024-01-06T17:34:31;6.30;99.90
1534;DHT22;760;48.822;9.304;2024-01-06T17:36:56;6.30;99.90
1534;DHT22;760;48.822;9.304;2024-01-06T17:39:22;6.30;99.90
1534;DHT22;760;48.822;9.304;2024-01-06T17:41:48;6.30;99.90
1534;DHT22;760;48.822;9.304;2024-01-06T17:44:13;6.30;99.90
1534;DHT22;760;48.822;9.304;2024-01-06T17:46:39;6.30;99.90
1534;DHT22;760;48.822;9.304;2024-01-06T17:49:04;6.30;99.90
1534;DHT22;760;48.822;9.304;2024-01-06T17:51:34;6.30;99.90
1534;DHT22;760;48.822;9.304;2024-01-06T17:54:00;6.30;99.90
1534;DHT22;760;48.822;9.304;2024-01-06T17:56:26;6.30;99.90
1534;DHT22;760;48.822;9.304;2024-01-06T17:58:52;6.30;99.90
1534;DHT22;760;48.822;9.304;2024-01-06T18:01:18;6.20;99.90
1534;DHT22;760;48.822;9.304;2024-01-06T18:03:43;6.20;99.90
1534;DHT22;760;48.822;9.304;2024-01-06T18:06:09;6.20;99.90
1534;DHT22;760;48.822;9.304;2024-01-06T18:08:35;6.20;99.90
1534;DHT22;760;48.822;9.304;2024-01-06T18:11:01;6.20;99.90
1534;DHT22;760;48.822;9.304;2024-01-06T18:13:27;6.20;99.90
1534;DHT22;760;48.822;9.304;2024-01-06T18:15:53;6.10;99.90
1534;DHT22;760;48.822;9.304;2024-01-06T18:18:18;6.20;99.90
1534;DHT22;760;48.822;9.304;2024-01-06T18:20:44;6.20;99.90
1534;DHT22;760;48.822;9.304;2024-01-06T18:23:13;6.20;99.90
1534;DHT22;760;48.822;9.304;2024-01-06T18:25:38;6.20;99.90
1534;DHT22;760;48.822;9.304;2024-01-06T18:28:04;6.10;99.90
1534;DHT22;760;48.822;9.304;2024-01-06T18:30:30;6.10;99.90
1534;DHT22;760;48.822;9.304;2024-01-06T18:32:58;6.20;99.90
1534;DHT22;760;48.822;9.304;2024-01-06T18:35:24;6.10;99.90
1534;DHT22;760;48.822;9.304;2024-01-06T18:37:50;6.10;99.90
1534;DHT22;760;48.822;9.304;2024-01-06T18:40:15;6.10;99.90
1534;DHT22;760;48.822;9.304;2024-01-06T18:42:42;6.10;99.90
1534;DHT22;760;48.822;9.304;2024-01-06T18:45:08;6.10;99.90
1534;DHT22;760;48.822;9.304;2024-01-06T18:47:34;6.20;99.90
1534;DHT22;760;48.822;9.304;2024-01-06T18:49:59;6.20;99.90
1534;DHT22;760;48.822;9.304;2024-01-06T18:52:25;6.20;99.90
1534;DHT22;760;48.822;9.304;2024-01-06T18:54:51;6.20;99.90
1534;DHT22;760;48.822;9.304;2024-01-06T18:57:16;6.20;99.90
1534;DHT22;760;48.822;9.304;2024-01-06T18:59:43;6.20;99.90
1534;DHT22;760;48.822;9.304;2024-01-06T19:02:13;6.20;99.90
1534;DHT22;760;48.822;9.304;2024-01-06T19:04:38;6.10;99.90
1534;DHT22;760;48.822;9.304;2024-01-06T19:07:04;6.10;99.90
1534;DHT22;760;48.822;9.304;2024-01-06T19:09:30;6.00;99.90
1534;DHT22;760;48.822;9.304;2024-01-06T19:11:57;6.00;99.90
1534;DHT22;760;48.822;9.304;2024-01-06T19:14:23;6.00;99.90
1534;DHT22;760;48.822;9.304;2024-01-06T19:16:50;5.90;99.90
1534;DHT22;760;48.822;9.304;2024-01-06T19:19:15;5.90;99.90
1534;DHT22;760;48.822;9.304;2024-01-06T19:21:41;5.90;99.90
1534;DHT22;760;48.822;9.304;2024-01-06T19:24:07;5.80;99.90
1534;DHT22;760;48.822;9.304;2024-01-06T19:26:32;5.80;99.90
1534;DHT22;760;48.822;9.304;2024-01-06T19:28:58;5.80;99.90
1534;DHT22;760;48.822;9.304;2024-01-06T19:31:24;5.70;99.90
1534;DHT22;760;48.822;9.304;2024-01-06T19:33:49;5.70;99.90
1534;DHT22;760;48.822;9.304;2024-01-06T19:36:17;5.70;99.90
1534;DHT22;760;48.822;9.304;2024-01-06T19:38:43;5.60;99.90
1534;DHT22;760;48.822;9.304;2024-01-06T19:41:08;5.60;99.90
1534;DHT22;760;48.822;9.304;2024-01-06T19:43:34;5.60;99.90
1534;DHT22;760;48.822;9.304;2024-01-06T19:46:01;5.60;99.90
1534;DHT22;760;48.822;9.304;2024-01-06T19:48:31;5.50;99.90
1534;DHT22;760;48.822;9.304;2024-01-06T19:50:57;5.50;99.90
1534;DHT22;760;48.822;9.304;2024-01-06T19:53:22;5.50;99.90
1534;DHT22;760;48.822;9.304;2024-01-06T19:55:48;5.50;99.90
1534;DHT22;760;48.822;9.304;2024-01-06T19:58:14;5.50;99.90
1534;DHT22;760;48.822;9.304;2024-01-06T20:00:39;5.50;99.90
1534;DHT22;760;48.822;9.304;2024-01-06T20:03:06;5.50;99.90
1534;DHT22;760;48.822;9.304;2024-01-06T20:05:34;5.50;99.90
1534;DHT22;760;48.822;9.304;2024-01-06T20:08:00;5.60;99.90
1534;DHT22;760;48.822;9.304;2024-01-06T20:10:25;5.60;99.90
1534;DHT22;760;48.822;9.304;2024-01-06T20:12:51;5.70;99.90
1534;DHT22;760;48.822;9.304;2024-01-06T20:15:16;5.70;99.90
1534;DHT22;760;48.822;9.304;2024-01-06T20:17:42;5.80;99.90
1534;DHT22;760;48.822;9.304;2024-01-06T20:20:08;5.80;99.90
1534;DHT22;760;48.822;9.304;2024-01-06T20:22:35;5.80;99.90
1534;DHT22;760;48.822;9.304;2024-01-06T20:25:01;5.80;99.90
1534;DHT22;760;48.822;9.304;2024-01-06T20:27:27;5.80;99.90
1534;DHT22;760;48.822;9.304;2024-01-06T20:29:52;5.80;99.90
1534;DHT22;760;48.822;9.304;2024-01-06T20:32:18;5.80;99.90
1534;DHT22;760;48.822;9.304;2024-01-06T20:34:45;5.80;99.90
1534;DHT22;760;48.822;9.304;2024-01-06T20:37:11;5.90;99.90
1534;DHT22;760;48.822;9.304;2024-01-06T20:39:37;5.80;99.90
1534;DHT22;760;48.822;9.304;2024-01-06T20:42:04;5.80;99.90
1534;DHT22;760;48.822;9.304;2024-01-06T20:44:30;5.80;99.90
1534;DHT22;760;48.822;9.304;2024-01-06T20:46:56;5.80;99.90
1534;DHT22;760;48.822;9.304;2024-01-06T20:49:22;5.80;99.90
1534;DHT22;760;48.822;9.304;2024-01-06T20:51:51;5.80;99.90
1534;DHT22;760;48.822;9.304;2024-01-06T20:54:17;5.90;99.90
1534;DHT22;760;48.822;9.304;2024-01-06T20:56:43;5.90;99.90
1534;DHT22;760;48.822;9.304;2024-01-06T20:59:08;5.90;99.90
1534;DHT22;760;48.822;9.304;2024-01-06T21:01:34;5.90;99.90
1534;DHT22;760;48.822;9.304;2024-01-06T21:04:00;5.90;99.90
1534;DHT22;760;48.822;9.304;2024-01-06T21:06:26;5.80;99.90
1534;DHT22;760;48.822;9.304;2024-01-06T21:08:52;5.80;99.90
1534;DHT22;760;48.822;9.304;2024-01-06T21:11:17;5.80;99.90
1534;DHT22;760;48.822;9.304;2024-01-06T21:13:43;5.80;99.90
1534;DHT22;760;48.822;9.304;2024-01-06T21:16:09;5.80;99.90
1534;DHT22;760;48.822;9.304;2024-01-06T21:18:37;5.80;99.90
1534;DHT22;760;48.822;9.304;2024-01-06T21:21:03;5.80;99.90
1534;DHT22;760;48.822;9.304;2024-01-06T21:23:29;5.80;99.90
1534;DHT22;760;48.822;9.304;2024-01-06T21:25:55;5.80;99.90
1534;DHT22;760;48.822;9.304;2024-01-06T21:28:22;5.80;99.90
1534;DHT22;760;48.822;9.304;2024-01-06T21:30:47;5.80;99.90
1534;DHT22;760;48.822;9.304;2024-01-06T21:33:15;5.80;99.90
1534;DHT22;760;48.822;9.304;2024-01-06T21:35:42;5.80;99.90
1534;DHT22;760;48.822;9.304;2024-01-06T21:38:08;5.80;99.90
1534;DHT22;760;48.822;9.304;2024-01-06T21:40:38;5.80;99.90
1534;DHT22;760;48.822;9.304;2024-01-06T21:43:04;5.80;99.90